KDBQ/DBQ METAR and TAF weather

Enter ICAO airport designator
Station Type Date Time Source
KDBQ METAR 2019/02/23 16:53 UTC NOAA

KDBQ 231653Z 10006KT 1 1/2SM BR OVC004 01/M01 A2988 RMK AO2 SLP129 T00061006


Station Type Date Time Source
KDBQ Decoded METAR 2019/02/23 16:53 UTC NOAA

DUBUQUE REGIONAL AIRPORT, IA, United States (KDBQ) 42-24N 90-42W 326M
Feb 23, 2019 - 11:53 AM EST / 2019.02.23 1653 UTC
Wind: from the E (100 degrees) at 7 MPH (6 KT):0
Visibility: 1 1/2 mile(s):0
Sky conditions: overcast
Weather: mist
Temperature: 33.1 F (0.6 C)
Windchill: 26 F (-3 C):1
Dew Point: 30.9 F (-0.6 C)
Relative Humidity: 91%
Pressure (altimeter): 29.88 in. Hg (1011 hPa)
ob: KDBQ 231653Z 10006KT 1 1/2SM BR OVC004 01/M01 A2988 RMK AO2 SLP129 T00061006
cycle: 17

Station Type Date Time Source
KDBQ TAF 2019/02/23 15:06 UTC NOAA

KDBQ 231503Z 2315/2412 10009KT 3SM BR BKN005 OVC010
TEMPO 2315/2318 1SM -FZRA BR BKN004
FM232200 09009KT 3SM -SHRA BR OVC008
FM240400 15008KT 1/2SM RA OVC003 WS020/21035KT
FM240700 27014G24KT 1SM -RASN OVC003
FM240900 30022G35KT 1 1/2SM -SN OVC008


Example: see airport list